createdAt,value
2022-11-25T00:01:33.590Z,62.88
2022-11-25T00:04:01.762Z,62.79
2022-11-25T00:06:32.110Z,62.32
2022-11-25T00:09:07.241Z,62.41
2022-11-25T00:11:36.897Z,62.37
2022-11-25T00:14:05.124Z,62.35
2022-11-25T00:16:32.716Z,62.40
2022-11-25T00:19:00.371Z,62.58
2022-11-25T00:21:31.522Z,62.50
2022-11-25T00:24:01.818Z,62.23
2022-11-25T00:26:32.812Z,62.52
2022-11-25T00:29:02.579Z,62.21
2022-11-25T00:31:32.955Z,62.55
2022-11-25T00:34:00.725Z,62.11
2022-11-25T00:36:36.872Z,62.53
2022-11-25T00:39:13.506Z,62.31
2022-11-25T00:42:00.739Z,61.90
2022-11-25T00:44:38.965Z,61.73
2022-11-25T00:47:18.374Z,61.89
2022-11-25T00:49:53.951Z,61.94
2022-11-25T00:52:24.442Z,61.73
2022-11-25T00:54:52.943Z,61.69
2022-11-25T00:57:22.832Z,62.06
2022-11-25T00:59:50.919Z,62.00
2022-11-25T01:02:21.964Z,61.85
2022-11-25T01:04:49.684Z,62.11
2022-11-25T01:07:17.944Z,62.16
2022-11-25T01:09:45.869Z,61.38
2022-11-25T01:12:13.486Z,61.94
2022-11-25T01:14:41.413Z,61.56
2022-11-25T01:17:09.026Z,62.29
2022-11-25T01:19:40.179Z,62.06
2022-11-25T01:22:09.573Z,62.03
2022-11-25T01:24:37.451Z,61.79
2022-11-25T01:27:05.173Z,61.97
2022-11-25T01:29:32.635Z,61.65
2022-11-25T01:32:00.372Z,61.71
2022-11-25T01:34:28.695Z,61.73
2022-11-25T01:36:58.461Z,61.72
2022-11-25T01:39:32.110Z,61.60
2022-11-25T01:42:01.945Z,61.67
2022-11-25T01:44:33.061Z,61.77
2022-11-25T01:47:16.026Z,61.47
2022-11-25T01:50:09.838Z,61.70
2022-11-25T01:52:42.517Z,61.35
2022-11-25T01:55:17.696Z,61.63
2022-11-25T01:58:08.708Z,61.52
2022-11-25T02:00:37.944Z,61.56
2022-11-25T02:03:06.446Z,61.47
2022-11-25T02:05:50.244Z,61.22
2022-11-25T02:08:20.091Z,61.55
2022-11-25T02:10:47.790Z,61.70
2022-11-25T02:13:16.094Z,61.90
2022-11-25T02:15:43.547Z,62.03
2022-11-25T02:18:11.172Z,62.21
2022-11-25T02:20:40.343Z,62.12
2022-11-25T02:23:49.215Z,61.86
2022-11-25T02:26:17.531Z,61.76
2022-11-25T02:28:45.322Z,61.65
2022-11-25T02:31:12.972Z,61.45
2022-11-25T02:33:40.579Z,61.38
2022-11-25T02:36:20.106Z,61.35
2022-11-25T02:38:59.476Z,61.75
2022-11-25T02:41:43.174Z,61.56
2022-11-25T02:44:10.946Z,61.63
2022-11-25T02:46:40.052Z,61.77
2022-11-25T02:49:09.212Z,61.62
2022-11-25T02:51:39.191Z,61.35
2022-11-25T02:54:06.985Z,61.26
2022-11-25T02:56:36.238Z,61.58
2022-11-25T02:59:04.352Z,61.63
2022-11-25T03:01:32.957Z,61.85
2022-11-25T03:04:01.128Z,61.97
2022-11-25T03:06:29.728Z,61.84
2022-11-25T03:08:57.897Z,62.15
2022-11-25T03:11:46.265Z,61.84
2022-11-25T03:14:14.902Z,61.65
2022-11-25T03:16:44.060Z,61.62
2022-11-25T03:19:12.079Z,61.89
2022-11-25T03:21:39.548Z,62.00
2022-11-25T03:24:07.936Z,61.68
2022-11-25T03:26:35.375Z,61.66
2022-11-25T03:29:03.020Z,61.57
2022-11-25T03:31:31.868Z,61.75
2022-11-25T03:33:59.657Z,61.77
2022-11-25T03:36:29.322Z,61.56
2022-11-25T03:38:56.847Z,61.66
2022-11-25T03:41:24.385Z,61.80
2022-11-25T03:43:51.897Z,62.00
2022-11-25T03:46:19.616Z,61.69
2022-11-25T03:48:47.489Z,61.70
2022-11-25T03:51:15.012Z,61.76
2022-11-25T03:53:43.845Z,61.64
2022-11-25T03:56:11.370Z,61.63
2022-11-25T03:58:39.080Z,61.44
2022-11-25T04:01:08.636Z,61.33
2022-11-25T04:03:36.488Z,61.73
2022-11-25T04:06:04.864Z,61.40
2022-11-25T04:08:32.647Z,61.39
2022-11-25T04:11:00.384Z,61.64
2022-11-25T04:13:32.079Z,61.42
2022-11-25T04:15:59.551Z,61.40
2022-11-25T04:18:27.157Z,61.27
2022-11-25T04:20:57.266Z,61.55
2022-11-25T04:23:24.835Z,61.67
2022-11-25T04:26:01.774Z,61.47
2022-11-25T04:28:37.154Z,61.77
2022-11-25T04:31:09.398Z,61.78
2022-11-25T04:33:40.156Z,61.64
2022-11-25T04:36:09.326Z,61.81
2022-11-25T04:38:37.013Z,61.91
2022-11-25T04:41:06.558Z,61.90
2022-11-25T04:43:44.216Z,62.04
2022-11-25T04:46:25.462Z,62.20
2022-11-25T04:48:53.076Z,61.81
2022-11-25T04:51:21.923Z,61.76
2022-11-25T04:53:53.094Z,62.10
2022-11-25T04:56:23.397Z,62.06
2022-11-25T04:59:12.539Z,62.00
2022-11-25T05:01:44.654Z,62.05
2022-11-25T05:04:32.515Z,61.97
2022-11-25T05:07:01.023Z,61.81
2022-11-25T05:09:29.599Z,61.94
2022-11-25T05:12:25.641Z,62.10
2022-11-25T05:14:53.163Z,61.99
2022-11-25T05:17:25.595Z,62.22
2022-11-25T05:19:53.438Z,62.03
2022-11-25T05:22:23.905Z,61.93
2022-11-25T05:24:53.571Z,61.98
2022-11-25T05:27:22.393Z,62.41
2022-11-25T05:29:55.718Z,61.80
2022-11-25T05:32:24.955Z,61.67
2022-11-25T05:34:54.338Z,61.91
2022-11-25T05:37:24.594Z,62.21
2022-11-25T05:39:59.595Z,61.87
2022-11-25T05:42:45.480Z,62.00
2022-11-25T05:45:13.116Z,61.96
2022-11-25T05:47:41.222Z,62.36
2022-11-25T05:50:11.459Z,62.49
2022-11-25T05:52:39.067Z,62.39
2022-11-25T05:55:07.720Z,62.23
2022-11-25T05:57:35.248Z,61.89
2022-11-25T06:00:09.964Z,62.04
2022-11-25T06:02:50.490Z,61.93
2022-11-25T06:05:19.018Z,62.84
2022-11-25T06:07:46.653Z,62.21
2022-11-25T06:10:14.929Z,61.89
2022-11-25T06:12:42.719Z,62.12
2022-11-25T06:15:11.284Z,62.12
2022-11-25T06:17:42.516Z,62.18
2022-11-25T06:20:16.003Z,62.39
2022-11-25T06:22:43.575Z,62.54
2022-11-25T06:25:11.235Z,62.68
2022-11-25T06:28:10.867Z,62.74
2022-11-25T06:30:27.687Z,62.70
2022-11-25T06:33:21.168Z,62.92
2022-11-25T06:35:49.672Z,62.76
2022-11-25T06:38:17.251Z,62.94
2022-11-25T06:40:46.955Z,63.74
2022-11-25T06:43:14.494Z,63.52
2022-11-25T06:45:41.916Z,62.87
2022-11-25T06:48:09.422Z,63.09
2022-11-25T06:50:36.917Z,62.89
2022-11-25T06:53:04.443Z,62.85
2022-11-25T06:55:31.957Z,63.08
2022-11-25T06:58:20.729Z,63.32
2022-11-25T07:00:46.844Z,63.52
2022-11-25T07:03:14.399Z,63.48
2022-11-25T07:05:41.974Z,63.39
2022-11-25T07:08:09.434Z,63.40
2022-11-25T07:10:36.969Z,63.14
2022-11-25T07:13:04.514Z,62.59
2022-11-25T07:15:34.951Z,62.55
2022-11-25T07:18:02.425Z,62.65
2022-11-25T07:20:30.165Z,62.55
2022-11-25T07:22:57.649Z,62.74
2022-11-25T07:25:30.470Z,63.17
2022-11-25T07:27:58.323Z,63.04
2022-11-25T07:33:13.552Z,62.64
2022-11-25T07:35:41.006Z,62.85
2022-11-25T07:38:08.435Z,62.59
2022-11-25T07:40:36.014Z,62.63
2022-11-25T07:43:04.204Z,62.80
2022-11-25T07:45:32.324Z,63.09
2022-11-25T07:48:07.853Z,63.18
2022-11-25T07:50:35.331Z,63.21
2022-11-25T07:53:02.856Z,63.09
2022-11-25T07:55:30.511Z,62.83
2022-11-25T07:57:57.979Z,62.89
2022-11-25T08:00:25.589Z,62.66
2022-11-25T08:02:53.530Z,62.42
2022-11-25T08:05:21.211Z,62.61
2022-11-25T08:07:48.759Z,62.58
2022-11-25T08:10:16.343Z,62.32
2022-11-25T08:12:43.940Z,62.83
2022-11-25T08:15:13.155Z,62.56
2022-11-25T08:17:40.616Z,62.77
2022-11-25T08:20:10.547Z,62.89
2022-11-25T08:22:37.983Z,63.23
2022-11-25T08:25:05.890Z,62.89
2022-11-25T08:27:33.420Z,62.59
2022-11-25T08:30:00.892Z,62.27
2022-11-25T08:32:31.713Z,62.57
2022-11-25T08:34:59.338Z,62.15
2022-11-25T08:37:26.982Z,62.24
2022-11-25T08:39:54.731Z,61.74
2022-11-25T08:42:22.921Z,62.42
2022-11-25T08:44:55.885Z,62.61
2022-11-25T08:47:24.380Z,62.27
2022-11-25T08:49:55.522Z,61.66
2022-11-25T08:52:23.410Z,61.86
2022-11-25T08:54:51.057Z,61.90
2022-11-25T08:57:18.528Z,62.18
2022-11-25T08:59:46.139Z,62.16
2022-11-25T09:02:16.591Z,62.39
2022-11-25T09:04:44.814Z,62.67
2022-11-25T09:07:12.528Z,62.83
2022-11-25T09:09:40.198Z,62.89
2022-11-25T09:12:08.361Z,62.78
2022-11-25T09:14:35.910Z,62.63
2022-11-25T09:17:09.087Z,62.54
2022-11-25T09:19:36.794Z,62.70
2022-11-25T09:22:04.568Z,62.77
2022-11-25T09:24:32.298Z,62.64
2022-11-25T09:26:59.857Z,62.82
2022-11-25T09:29:27.960Z,62.75
2022-11-25T09:31:55.500Z,62.66
2022-11-25T09:34:23.101Z,62.54
2022-11-25T09:36:51.758Z,62.64
2022-11-25T09:39:19.651Z,62.51
2022-11-25T09:42:32.982Z,62.32
2022-11-25T09:45:37.117Z,62.24
2022-11-25T09:48:49.502Z,62.26
2022-11-25T09:51:43.624Z,62.37
2022-11-25T09:54:16.360Z,61.96
2022-11-25T09:56:51.615Z,62.26
2022-11-25T09:59:45.502Z,62.55
2022-11-25T10:02:37.913Z,62.93
2022-11-25T10:05:20.148Z,63.14
2022-11-25T10:07:53.333Z,62.63
2022-11-25T10:10:29.912Z,62.32
2022-11-25T10:12:59.366Z,62.46
2022-11-25T10:15:37.271Z,62.82
2022-11-25T10:18:13.570Z,62.36
2022-11-25T10:20:42.691Z,62.08
2022-11-25T10:23:24.953Z,61.78
2022-11-25T10:26:02.878Z,62.16
2022-11-25T10:28:35.209Z,62.29
2022-11-25T10:31:19.875Z,62.31
2022-11-25T10:33:48.835Z,62.22
2022-11-25T10:36:24.424Z,62.31
2022-11-25T10:39:00.726Z,62.15
2022-11-25T10:41:43.127Z,62.40
2022-11-25T10:44:27.505Z,62.00
2022-11-25T10:47:32.395Z,62.29
2022-11-25T10:50:14.684Z,62.11
2022-11-25T10:52:55.423Z,61.88
2022-11-25T10:55:26.962Z,62.01
2022-11-25T10:57:55.434Z,61.90
2022-11-25T11:00:27.922Z,61.97
2022-11-25T11:02:57.092Z,61.81
2022-11-25T11:05:30.452Z,62.34
2022-11-25T11:08:15.416Z,62.12
2022-11-25T11:10:43.451Z,62.25
2022-11-25T11:13:33.311Z,62.44
2022-11-25T11:16:00.944Z,62.13
2022-11-25T11:18:39.946Z,62.11
2022-11-25T11:21:21.028Z,61.75
2022-11-25T11:23:54.103Z,61.93
2022-11-25T11:26:33.675Z,62.03
2022-11-25T11:29:04.159Z,61.53
2022-11-25T11:31:39.421Z,61.91
2022-11-25T11:34:27.664Z,61.70
2022-11-25T11:37:33.744Z,62.15
2022-11-25T11:40:31.333Z,62.13
2022-11-25T11:43:38.486Z,62.47
2022-11-25T11:46:36.886Z,62.63
2022-11-25T11:49:27.609Z,63.28
2022-11-25T11:52:25.524Z,63.31
2022-11-25T11:54:59.209Z,62.91
2022-11-25T11:57:53.909Z,62.91
2022-11-25T12:00:22.652Z,62.37
2022-11-25T12:03:14.796Z,62.60
2022-11-25T12:05:42.642Z,62.62
2022-11-25T12:08:19.555Z,62.47
2022-11-25T12:11:13.820Z,63.36
2022-11-25T12:14:07.964Z,62.58
2022-11-25T12:16:46.852Z,62.70
2022-11-25T12:19:24.017Z,63.01
2022-11-25T12:22:00.744Z,62.56
2022-11-25T12:24:57.032Z,62.90
2022-11-25T12:30:16.478Z,62.87
2022-11-25T12:32:53.082Z,63.19
2022-11-25T12:35:57.377Z,63.16
2022-11-25T12:38:45.525Z,63.47
2022-11-25T12:41:42.853Z,62.95
2022-11-25T12:44:25.394Z,63.20
2022-11-25T12:46:56.284Z,62.85
2022-11-25T12:49:29.934Z,63.34
2022-11-25T12:52:17.097Z,63.74
2022-11-25T12:55:03.299Z,63.46
2022-11-25T12:57:54.682Z,63.16
2022-11-25T13:00:41.669Z,63.18
2022-11-25T13:03:31.212Z,63.70
2022-11-25T13:06:49.814Z,64.33
2022-11-25T13:09:22.888Z,63.70
2022-11-25T13:12:18.519Z,64.01
2022-11-25T13:14:55.220Z,63.67
2022-11-25T13:17:24.305Z,63.63
2022-11-25T13:20:29.874Z,63.57
2022-11-25T13:23:10.403Z,63.62
2022-11-25T13:25:41.307Z,64.22
2022-11-25T13:28:27.137Z,63.87
2022-11-25T13:30:55.038Z,63.85
2022-11-25T13:33:25.251Z,63.63
2022-11-25T13:35:55.177Z,63.58
2022-11-25T13:38:59.730Z,63.38
2022-11-25T13:41:42.728Z,63.26
2022-11-25T13:44:13.357Z,63.67
2022-11-25T13:46:51.625Z,64.03
2022-11-25T13:49:36.353Z,64.14
2022-11-25T13:52:29.133Z,63.65
2022-11-25T13:54:57.579Z,63.36
2022-11-25T13:57:29.589Z,63.09
2022-11-25T14:00:10.418Z,63.11
2022-11-25T14:02:45.510Z,63.21
2022-11-25T14:05:37.239Z,63.25
2022-11-25T14:08:39.819Z,63.16
2022-11-25T14:11:10.025Z,63.21
2022-11-25T14:13:46.305Z,63.11
2022-11-25T14:16:32.438Z,63.13
2022-11-25T14:19:51.738Z,63.13
2022-11-25T14:22:31.097Z,62.94
2022-11-25T14:25:26.825Z,62.91
2022-11-25T14:28:22.186Z,62.75
2022-11-25T14:31:00.952Z,62.97
2022-11-25T14:33:43.782Z,62.72
2022-11-25T14:36:15.507Z,62.90
2022-11-25T14:38:52.871Z,62.95
2022-11-25T14:41:25.812Z,63.07
2022-11-25T14:43:58.801Z,63.50
2022-11-25T14:46:26.360Z,63.08
2022-11-25T14:49:07.626Z,63.70
2022-11-25T14:51:41.959Z,63.49
2022-11-25T14:54:10.645Z,63.00
2022-11-25T14:56:39.326Z,62.84
2022-11-25T14:59:09.921Z,62.92
2022-11-25T15:01:40.049Z,63.47
2022-11-25T15:04:15.889Z,63.19
2022-11-25T15:06:50.411Z,63.80
2022-11-25T15:09:24.926Z,63.58
2022-11-25T15:12:11.437Z,63.59
2022-11-25T15:14:47.773Z,63.56
2022-11-25T15:17:37.623Z,63.82
2022-11-25T15:20:19.845Z,64.15
2022-11-25T15:22:52.543Z,63.93
2022-11-25T15:25:20.494Z,63.75
2022-11-25T15:27:52.648Z,63.98
2022-11-25T15:30:27.228Z,64.15
2022-11-25T15:32:56.482Z,63.97
2022-11-25T15:35:26.310Z,63.75
2022-11-25T15:37:56.915Z,63.81
2022-11-25T15:40:44.486Z,63.86
2022-11-25T15:43:31.931Z,63.99
2022-11-25T15:46:05.657Z,64.17
2022-11-25T15:48:46.340Z,64.16
2022-11-25T15:51:44.673Z,63.90
2022-11-25T15:54:20.970Z,63.83
2022-11-25T15:56:51.638Z,63.59
2022-11-25T15:59:38.564Z,64.52
2022-11-25T16:02:39.150Z,64.63
2022-11-25T16:05:12.282Z,64.54
2022-11-25T16:08:20.948Z,64.50
2022-11-25T16:11:12.355Z,64.26
2022-11-25T16:13:40.458Z,64.13
2022-11-25T16:16:07.964Z,64.13
2022-11-25T16:18:40.979Z,64.32
2022-11-25T16:21:30.904Z,64.44
2022-11-25T16:24:07.691Z,64.32
2022-11-25T16:26:49.401Z,64.48
2022-11-25T16:29:39.419Z,64.71
2022-11-25T16:32:19.208Z,64.52
2022-11-25T16:34:46.930Z,64.42
2022-11-25T16:37:14.638Z,64.14
2022-11-25T16:39:42.450Z,64.35
2022-11-25T16:42:28.164Z,63.74
2022-11-25T16:44:55.736Z,63.98
2022-11-25T16:47:24.381Z,63.93
2022-11-25T16:49:52.123Z,64.28
2022-11-25T16:52:19.814Z,64.41
2022-11-25T16:54:47.600Z,63.95
2022-11-25T16:57:22.012Z,64.47
2022-11-25T16:59:57.255Z,64.02
2022-11-25T17:02:26.301Z,64.09
2022-11-25T17:04:54.046Z,63.91
2022-11-25T17:07:38.377Z,64.25
2022-11-25T17:10:07.351Z,64.15
2022-11-25T17:12:36.385Z,64.45
2022-11-25T17:15:06.931Z,64.59
2022-11-25T17:17:34.969Z,64.54
2022-11-25T17:20:07.176Z,64.35
2022-11-25T17:22:39.141Z,64.30
2022-11-25T17:25:08.033Z,64.16
2022-11-25T17:27:35.691Z,64.43
2022-11-25T17:30:06.715Z,64.52
2022-11-25T17:32:35.039Z,64.31
2022-11-25T17:35:02.642Z,63.90
2022-11-25T17:37:32.065Z,63.73
2022-11-25T17:39:59.932Z,63.93
2022-11-25T17:42:31.585Z,63.99
2022-11-25T17:45:00.660Z,64.16
2022-11-25T17:47:28.359Z,64.06
2022-11-25T17:49:55.984Z,64.15
2022-11-25T17:52:23.719Z,63.83
2022-11-25T17:54:51.375Z,63.99
2022-11-25T17:57:21.749Z,64.60
2022-11-25T17:59:49.697Z,64.51
2022-11-25T18:02:22.403Z,64.52
2022-11-25T18:04:50.602Z,64.20
2022-11-25T18:07:19.003Z,64.21
2022-11-25T18:09:47.109Z,64.23
2022-11-25T18:12:34.537Z,65.14
2022-11-25T18:15:07.989Z,64.58
2022-11-25T18:17:37.258Z,64.49
2022-11-25T18:20:22.116Z,64.73
2022-11-25T18:22:50.927Z,64.38
2022-11-25T18:25:28.804Z,64.32
2022-11-25T18:27:57.204Z,64.24
2022-11-25T18:30:28.244Z,64.22
2022-11-25T18:32:57.401Z,64.19
2022-11-25T18:35:35.679Z,64.86
2022-11-25T18:38:04.844Z,64.74
2022-11-25T18:40:33.645Z,64.68
2022-11-25T18:43:03.610Z,64.74
2022-11-25T18:45:39.324Z,64.45
2022-11-25T18:48:18.940Z,64.60
2022-11-25T18:50:47.942Z,64.22
2022-11-25T18:53:15.858Z,64.33
2022-11-25T18:55:43.867Z,64.43
2022-11-25T18:58:20.572Z,64.81
2022-11-25T19:00:49.996Z,64.69
2022-11-25T19:03:26.269Z,64.75
2022-11-25T19:05:59.546Z,64.34
2022-11-25T19:08:27.666Z,64.63
2022-11-25T19:10:56.136Z,64.38
2022-11-25T19:13:28.728Z,64.70
2022-11-25T19:16:02.261Z,64.27
2022-11-25T19:18:30.054Z,64.08
2022-11-25T19:20:57.731Z,64.71
2022-11-25T19:23:28.120Z,64.99
2022-11-25T19:26:01.091Z,64.78
2022-11-25T19:28:31.066Z,64.80
2022-11-25T19:31:03.318Z,64.57
2022-11-25T19:33:40.524Z,64.73
2022-11-25T19:36:17.351Z,64.44
2022-11-25T19:38:45.057Z,64.41
2022-11-25T19:41:12.527Z,64.23
2022-11-25T19:43:40.147Z,64.35
2022-11-25T19:46:29.617Z,64.51
2022-11-25T19:49:03.296Z,63.94
2022-11-25T19:51:34.015Z,64.41
2022-11-25T19:54:01.535Z,64.44
2022-11-25T19:56:29.203Z,64.12
2022-11-25T19:58:57.239Z,64.35
2022-11-25T20:01:32.358Z,64.99
2022-11-25T20:04:00.176Z,64.63
2022-11-25T20:06:28.364Z,64.69
2022-11-25T20:09:01.205Z,64.70
2022-11-25T20:11:32.501Z,64.73
2022-11-25T20:13:59.973Z,64.69
2022-11-25T20:16:38.612Z,65.68
2022-11-25T20:19:07.348Z,65.02
2022-11-25T20:21:40.325Z,64.58
2022-11-25T20:24:14.745Z,64.95
2022-11-25T20:26:46.098Z,64.47
2022-11-25T20:29:19.834Z,64.65
2022-11-25T20:31:48.216Z,64.36
2022-11-25T20:34:15.912Z,64.23
2022-11-25T20:36:44.781Z,64.75
2022-11-25T20:39:20.434Z,64.81
2022-11-25T20:41:52.803Z,64.87
2022-11-25T20:44:21.209Z,64.86
2022-11-25T20:46:48.846Z,64.94
2022-11-25T20:49:27.645Z,64.88
2022-11-25T20:51:56.819Z,64.77
2022-11-25T20:54:24.826Z,64.56
2022-11-25T20:56:52.633Z,64.90
2022-11-25T20:59:22.253Z,64.70
2022-11-25T21:01:54.625Z,65.12
2022-11-25T21:04:22.614Z,64.82
2022-11-25T21:06:50.088Z,64.74
2022-11-25T21:09:25.109Z,65.28
2022-11-25T21:11:52.682Z,65.38
2022-11-25T21:14:20.372Z,65.48
2022-11-25T21:16:49.372Z,65.50
2022-11-25T21:19:16.901Z,65.62
2022-11-25T21:21:46.980Z,65.49
2022-11-25T21:24:38.733Z,65.54
2022-11-25T21:27:14.621Z,65.75
2022-11-25T21:29:43.914Z,65.14
2022-11-25T21:32:23.550Z,65.22
2022-11-25T21:34:51.447Z,65.00
2022-11-25T21:37:32.540Z,65.10
2022-11-25T21:40:00.648Z,64.99
2022-11-25T21:42:30.010Z,65.33
2022-11-25T21:44:57.842Z,65.26
2022-11-25T21:47:28.910Z,65.10
2022-11-25T21:49:56.465Z,64.86
2022-11-25T21:52:24.665Z,64.93
2022-11-25T21:54:52.191Z,65.21
2022-11-25T21:57:27.815Z,64.99
2022-11-25T21:59:55.878Z,65.02
2022-11-25T22:02:24.822Z,65.26
2022-11-25T22:04:52.452Z,65.26
2022-11-25T22:07:20.031Z,65.30
2022-11-25T22:09:47.635Z,65.05
2022-11-25T22:12:30.363Z,65.24
2022-11-25T22:14:59.690Z,65.17
2022-11-25T22:17:29.386Z,65.30
2022-11-25T22:19:57.292Z,65.26
2022-11-25T22:22:25.019Z,65.26
2022-11-25T22:24:52.710Z,64.98
2022-11-25T22:27:26.034Z,64.95
2022-11-25T22:29:55.678Z,64.90
2022-11-25T22:32:23.518Z,64.98
2022-11-25T22:34:50.995Z,64.61
2022-11-25T22:37:20.797Z,64.69
2022-11-25T22:39:48.739Z,64.53
2022-11-25T22:42:31.956Z,64.40
2022-11-25T22:45:02.155Z,64.91
2022-11-25T22:47:39.204Z,64.70
2022-11-25T22:50:17.653Z,64.29
2022-11-25T22:52:45.249Z,64.63
2022-11-25T22:55:17.713Z,64.54
2022-11-25T22:57:45.787Z,64.46
2022-11-25T23:00:20.029Z,64.69
2022-11-25T23:02:49.845Z,64.54
2022-11-25T23:05:37.298Z,65.12
2022-11-25T23:08:25.982Z,65.17
2022-11-25T23:10:53.724Z,65.13
2022-11-25T23:13:22.009Z,64.76
2022-11-25T23:15:53.754Z,65.11
2022-11-25T23:18:26.402Z,65.11
2022-11-25T23:20:54.304Z,65.13
2022-11-25T23:23:25.355Z,64.92
2022-11-25T23:25:53.120Z,65.15
2022-11-25T23:28:20.826Z,65.44
2022-11-25T23:30:54.220Z,65.06
2022-11-25T23:33:38.038Z,64.60
2022-11-25T23:36:28.546Z,64.92
2022-11-25T23:38:59.310Z,64.42
2022-11-25T23:41:30.146Z,64.57
2022-11-25T23:44:02.181Z,64.55
2022-11-25T23:46:33.349Z,64.63
2022-11-25T23:49:02.993Z,64.89
2022-11-25T23:51:30.979Z,64.85
2022-11-25T23:53:59.013Z,64.85
2022-11-25T23:56:28.121Z,64.64
2022-11-25T23:58:55.638Z,64.61
